EZY4424 EGCC-EHAM
Flight info
| Callsign | EZY4424 |
|---|---|
| Flight time | 0h 47m |
| Altitude | 33000 |
| Route | DESIG L603 LAMSO |
| Aircraft | A320/M-SDE3FGHIRWY/LB1 |
Departure
| Time | 2026-05-06 17:45 |
|---|---|
| Airport | Manchester Airport (EGCC) |
Arrival
| Time | 2026-05-06 18:32 |
|---|---|
| Airport | Amsterdam Airport Schiphol (EHAM) |
| Time | Latitude | Longitude | Altitude | Speed | Heading |
|---|---|---|---|---|---|
| 2026-05-06 17:04 | 53.36555 | -2.27933 | 255 ft | 0 kts | 45° |
| 2026-05-06 17:22 | 53.36543 | -2.27936 | 255 ft | 4 kts | 350° |
| 2026-05-06 17:22 | 53.36537 | -2.27956 | 255 ft | 4 kts | 255° |
| 2026-05-06 17:23 | 53.36522 | -2.27992 | 255 ft | 4 kts | 230° |
| 2026-05-06 17:23 | 53.36512 | -2.28009 | 255 ft | 3 kts | 223° |
| 2026-05-06 17:23 | 53.36491 | -2.28005 | 255 ft | 4 kts | 160° |
| 2026-05-06 17:23 | 53.36469 | -2.27981 | 255 ft | 4 kts | 143° |
| 2026-05-06 17:24 | 53.36448 | -2.27952 | 255 ft | 4 kts | 140° |
| 2026-05-06 17:24 | 53.36428 | -2.27922 | 255 ft | 4 kts | 138° |
| 2026-05-06 17:24 | 53.36415 | -2.27904 | 255 ft | 0 kts | 138° |
| 2026-05-06 17:33 | 53.36409 | -2.27900 | 255 ft | 1 kts | 163° |
| 2026-05-06 17:33 | 53.36393 | -2.27929 | 255 ft | 6 kts | 227° |
| 2026-05-06 17:34 | 53.36368 | -2.27972 | 255 ft | 5 kts | 226° |
| 2026-05-06 17:34 | 53.36348 | -2.28005 | 255 ft | 3 kts | 225° |
| 2026-05-06 17:34 | 53.36334 | -2.28028 | 255 ft | 3 kts | 219° |
| 2026-05-06 17:34 | 53.36313 | -2.28047 | 255 ft | 3 kts | 203° |
| 2026-05-06 17:35 | 53.36297 | -2.28056 | 255 ft | 2 kts | 197° |
| 2026-05-06 17:35 | 53.36288 | -2.28060 | 255 ft | 1 kts | 196° |
| 2026-05-06 17:35 | 53.36235 | -2.28106 | 255 ft | 14 kts | 214° |
| 2026-05-06 17:36 | 53.36029 | -2.27956 | 255 ft | 23 kts | 140° |
| 2026-05-06 17:36 | 53.35887 | -2.27851 | 255 ft | 24 kts | 183° |
| 2026-05-06 17:36 | 53.35700 | -2.27881 | 245 ft | 30 kts | 185° |
| 2026-05-06 17:36 | 53.35588 | -2.27974 | 238 ft | 18 kts | 229° |
| 2026-05-06 17:37 | 53.35453 | -2.28148 | 235 ft | 31 kts | 196° |
| 2026-05-06 17:37 | 53.35251 | -2.28272 | 232 ft | 34 kts | 222° |
| 2026-05-06 17:37 | 53.35095 | -2.28585 | 229 ft | 36 kts | 231° |
| 2026-05-06 17:37 | 53.34975 | -2.28811 | 226 ft | 13 kts | 229° |
| 2026-05-06 17:38 | 53.34916 | -2.28917 | 224 ft | 13 kts | 224° |
| 2026-05-06 17:38 | 53.34844 | -2.29032 | 219 ft | 14 kts | 214° |
| 2026-05-06 17:38 | 53.34803 | -2.29064 | 224 ft | 0 kts | 194° |
| 2026-05-06 17:39 | 53.34750 | -2.29065 | 218 ft | 10 kts | 168° |
| 2026-05-06 17:39 | 53.34680 | -2.29003 | 222 ft | 12 kts | 140° |
| 2026-05-06 17:39 | 53.34690 | -2.28911 | 221 ft | 10 kts | 53° |
| 2026-05-06 17:39 | 53.34836 | -2.28606 | 230 ft | 68 kts | 51° |
| 2026-05-06 17:40 | 53.35027 | -2.28214 | 232 ft | 0 kts | 52° |
| 2026-05-06 17:40 | 53.35051 | -2.28169 | 233 ft | 8 kts | 39° |
| 2026-05-06 17:40 | 53.35103 | -2.28163 | 234 ft | 8 kts | 334° |
| 2026-05-06 17:40 | 53.35160 | -2.28203 | 230 ft | 9 kts | 355° |
| 2026-05-06 17:41 | 53.35212 | -2.28195 | 231 ft | 6 kts | 7° |
| 2026-05-06 17:41 | 53.35215 | -2.28194 | 231 ft | 0 kts | 7° |
| 2026-05-06 17:42 | 53.35257 | -2.28202 | 231 ft | 6 kts | 337° |
| 2026-05-06 17:42 | 53.35261 | -2.28235 | 233 ft | 2 kts | 259° |
| 2026-05-06 17:43 | 53.35230 | -2.28303 | 232 ft | 11 kts | 230° |
| 2026-05-06 17:43 | 53.35178 | -2.28410 | 229 ft | 13 kts | 231° |
| 2026-05-06 17:43 | 53.35117 | -2.28537 | 228 ft | 15 kts | 231° |
| 2026-05-06 17:43 | 53.35017 | -2.28734 | 227 ft | 27 kts | 228° |
| 2026-05-06 17:44 | 53.34883 | -2.28972 | 221 ft | 27 kts | 225° |
| 2026-05-06 17:44 | 53.34764 | -2.29065 | 220 ft | 17 kts | 176° |
| 2026-05-06 17:44 | 53.34679 | -2.28996 | 218 ft | 7 kts | 132° |
| 2026-05-06 17:44 | 53.34685 | -2.28928 | 223 ft | 6 kts | 56° |
| 2026-05-06 17:45 | 53.34758 | -2.28770 | 225 ft | 46 kts | 52° |
| 2026-05-06 17:45 | 53.35106 | -2.28051 | 233 ft | 110 kts | 51° |
| 2026-05-06 17:45 | 53.35696 | -2.26829 | 303 ft | 154 kts | 51° |
| 2026-05-06 17:45 | 53.36386 | -2.25451 | 940 ft | 156 kts | 53° |
| 2026-05-06 17:46 | 53.37092 | -2.24036 | 1669 ft | 161 kts | 53° |
| 2026-05-06 17:46 | 53.37823 | -2.22474 | 2061 ft | 181 kts | 54° |
| 2026-05-06 17:46 | 53.38642 | -2.20702 | 2373 ft | 203 kts | 53° |
| 2026-05-06 17:46 | 53.39561 | -2.18718 | 2760 ft | 228 kts | 53° |
| 2026-05-06 17:47 | 53.40582 | -2.16530 | 3315 ft | 247 kts | 52° |
| 2026-05-06 17:47 | 53.41669 | -2.14222 | 4136 ft | 256 kts | 52° |
| 2026-05-06 17:47 | 53.42784 | -2.11857 | 5033 ft | 262 kts | 51° |
| 2026-05-06 17:47 | 53.43906 | -2.09467 | 5902 ft | 267 kts | 51° |
| 2026-05-06 17:48 | 53.45065 | -2.06996 | 6785 ft | 272 kts | 49° |
| 2026-05-06 17:48 | 53.46247 | -2.04470 | 7642 ft | 277 kts | 51° |
| 2026-05-06 17:48 | 53.47437 | -2.01893 | 8507 ft | 282 kts | 53° |
| 2026-05-06 17:48 | 53.48231 | -1.98861 | 9319 ft | 291 kts | 77° |
| 2026-05-06 17:49 | 53.48304 | -1.95432 | 10121 ft | 297 kts | 91° |
| 2026-05-06 17:49 | 53.48222 | -1.91847 | 10508 ft | 319 kts | 91° |
| 2026-05-06 17:49 | 53.48128 | -1.88000 | 10886 ft | 337 kts | 91° |
| 2026-05-06 17:49 | 53.48028 | -1.84030 | 11586 ft | 344 kts | 91° |
| 2026-05-06 17:50 | 53.47924 | -1.79989 | 12351 ft | 348 kts | 91° |
| 2026-05-06 17:50 | 53.47820 | -1.75909 | 13108 ft | 352 kts | 91° |
| 2026-05-06 17:50 | 53.47714 | -1.71776 | 13849 ft | 357 kts | 91° |
| 2026-05-06 17:50 | 53.47606 | -1.67591 | 14499 ft | 361 kts | 91° |
| 2026-05-06 17:51 | 53.47499 | -1.63364 | 15149 ft | 364 kts | 91° |
| 2026-05-06 17:51 | 53.47303 | -1.59211 | 15783 ft | 368 kts | 99° |
| 2026-05-06 17:51 | 53.46672 | -1.54910 | 16436 ft | 372 kts | 107° |
| 2026-05-06 17:51 | 53.45922 | -1.50729 | 17101 ft | 376 kts | 107° |
| 2026-05-06 17:52 | 53.45420 | -1.47944 | 17527 ft | 378 kts | 107° |
| 2026-05-06 17:52 | 53.44652 | -1.43706 | 18169 ft | 381 kts | 107° |
| 2026-05-06 17:52 | 53.43877 | -1.39431 | 18742 ft | 385 kts | 107° |
| 2026-05-06 17:52 | 53.43092 | -1.35118 | 19281 ft | 388 kts | 107° |
| 2026-05-06 17:53 | 53.42302 | -1.30770 | 19834 ft | 392 kts | 107° |
| 2026-05-06 17:53 | 53.41507 | -1.26384 | 20374 ft | 395 kts | 107° |
| 2026-05-06 17:53 | 53.40707 | -1.21964 | 20913 ft | 398 kts | 107° |
| 2026-05-06 17:53 | 53.39902 | -1.17513 | 21414 ft | 401 kts | 107° |
| 2026-05-06 17:54 | 53.39086 | -1.13017 | 21930 ft | 405 kts | 107° |
| 2026-05-06 17:54 | 53.38262 | -1.08495 | 22437 ft | 408 kts | 107° |
| 2026-05-06 17:54 | 53.37428 | -1.03942 | 22937 ft | 411 kts | 107° |
| 2026-05-06 17:54 | 53.36581 | -0.99350 | 23444 ft | 414 kts | 107° |
| 2026-05-06 17:55 | 53.35729 | -0.94733 | 23876 ft | 417 kts | 107° |
| 2026-05-06 17:55 | 53.34867 | -0.90076 | 24280 ft | 420 kts | 107° |
| 2026-05-06 17:55 | 53.34000 | -0.85408 | 24683 ft | 422 kts | 108° |
| 2026-05-06 17:55 | 53.33125 | -0.80705 | 25091 ft | 424 kts | 108° |
| 2026-05-06 17:56 | 53.32245 | -0.75979 | 25489 ft | 427 kts | 108° |
| 2026-05-06 17:56 | 53.31357 | -0.71220 | 25883 ft | 429 kts | 108° |
| 2026-05-06 17:56 | 53.30463 | -0.66446 | 26270 ft | 432 kts | 108° |
| 2026-05-06 17:56 | 53.29575 | -0.61710 | 26647 ft | 434 kts | 108° |
| 2026-05-06 17:57 | 53.28668 | -0.56887 | 27025 ft | 437 kts | 108° |
| 2026-05-06 17:57 | 53.27751 | -0.52034 | 27401 ft | 439 kts | 108° |
| 2026-05-06 17:57 | 53.26829 | -0.47169 | 27757 ft | 441 kts | 108° |
| 2026-05-06 17:57 | 53.25901 | -0.42264 | 28125 ft | 444 kts | 108° |
| 2026-05-06 17:58 | 53.24968 | -0.37340 | 28473 ft | 446 kts | 108° |
| 2026-05-06 17:58 | 53.24024 | -0.32382 | 28816 ft | 449 kts | 108° |
| 2026-05-06 17:58 | 53.23073 | -0.27408 | 29163 ft | 452 kts | 108° |
| 2026-05-06 17:58 | 53.22115 | -0.22399 | 29496 ft | 454 kts | 108° |
| 2026-05-06 17:59 | 53.21151 | -0.17360 | 29831 ft | 457 kts | 108° |
| 2026-05-06 17:59 | 53.20179 | -0.12315 | 30147 ft | 459 kts | 109° |
| 2026-05-06 17:59 | 53.19195 | -0.07233 | 30420 ft | 461 kts | 109° |
| 2026-05-06 17:59 | 53.18205 | -0.02136 | 30695 ft | 463 kts | 109° |
| 2026-05-06 18:00 | 53.17212 | 0.02981 | 30923 ft | 466 kts | 109° |
| 2026-05-06 18:00 | 53.16209 | 0.08130 | 31164 ft | 468 kts | 109° |
| 2026-05-06 18:00 | 53.15203 | 0.13293 | 31421 ft | 470 kts | 109° |
| 2026-05-06 18:00 | 53.14195 | 0.18468 | 31780 ft | 469 kts | 109° |
| 2026-05-06 18:01 | 53.13187 | 0.23623 | 32154 ft | 468 kts | 109° |
| 2026-05-06 18:01 | 53.12175 | 0.28771 | 32509 ft | 467 kts | 109° |
| 2026-05-06 18:01 | 53.11160 | 0.33903 | 32874 ft | 466 kts | 109° |
| 2026-05-06 18:01 | 53.10145 | 0.39025 | 33023 ft | 464 kts | 109° |
| 2026-05-06 18:02 | 53.09150 | 0.44058 | 33037 ft | 453 kts | 109° |
| 2026-05-06 18:02 | 53.08170 | 0.49012 | 33034 ft | 449 kts | 109° |
| 2026-05-06 18:02 | 53.06210 | 0.58834 | 33031 ft | 447 kts | 110° |
| 2026-05-06 18:03 | 53.04243 | 0.68613 | 33028 ft | 446 kts | 110° |
| 2026-05-06 18:03 | 53.02278 | 0.78382 | 33026 ft | 446 kts | 110° |
| 2026-05-06 18:04 | 53.00306 | 0.88139 | 33004 ft | 445 kts | 110° |
| 2026-05-06 18:04 | 52.98321 | 0.97868 | 33004 ft | 445 kts | 110° |
| 2026-05-06 18:05 | 52.96978 | 1.07826 | 33001 ft | 446 kts | 102° |
| 2026-05-06 18:05 | 52.95812 | 1.17918 | 33006 ft | 445 kts | 102° |
| 2026-05-06 18:06 | 52.94641 | 1.27997 | 33002 ft | 445 kts | 102° |
| 2026-05-06 18:06 | 52.93468 | 1.38075 | 33000 ft | 445 kts | 102° |
| 2026-05-06 18:07 | 52.92282 | 1.48153 | 32999 ft | 445 kts | 103° |
| 2026-05-06 18:07 | 52.91070 | 1.58212 | 32996 ft | 445 kts | 103° |
| 2026-05-06 18:08 | 52.89856 | 1.68268 | 32995 ft | 445 kts | 103° |
| 2026-05-06 18:08 | 52.89255 | 1.73279 | 32803 ft | 440 kts | 103° |
| 2026-05-06 18:08 | 52.88660 | 1.78234 | 32703 ft | 438 kts | 103° |
| 2026-05-06 18:09 | 52.87459 | 1.88116 | 32698 ft | 438 kts | 103° |
| 2026-05-06 18:09 | 52.86240 | 1.98022 | 31825 ft | 444 kts | 103° |
| 2026-05-06 18:10 | 52.85626 | 2.03020 | 31280 ft | 440 kts | 103° |
| 2026-05-06 18:10 | 52.85018 | 2.07969 | 30754 ft | 437 kts | 103° |
| 2026-05-06 18:10 | 52.84419 | 2.12804 | 30237 ft | 434 kts | 103° |
| 2026-05-06 18:10 | 52.83812 | 2.17675 | 29661 ft | 431 kts | 103° |
| 2026-05-06 18:11 | 52.83208 | 2.22501 | 29160 ft | 426 kts | 103° |
| 2026-05-06 18:11 | 52.82611 | 2.27259 | 28662 ft | 421 kts | 103° |
| 2026-05-06 18:11 | 52.82017 | 2.31967 | 28183 ft | 416 kts | 103° |
| 2026-05-06 18:11 | 52.81428 | 2.36619 | 27708 ft | 411 kts | 103° |
| 2026-05-06 18:12 | 52.80845 | 2.41212 | 27255 ft | 406 kts | 103° |
| 2026-05-06 18:12 | 52.80265 | 2.45750 | 26803 ft | 402 kts | 103° |
| 2026-05-06 18:12 | 52.79689 | 2.50257 | 26387 ft | 408 kts | 103° |
| 2026-05-06 18:12 | 52.79083 | 2.54976 | 25934 ft | 429 kts | 103° |
| 2026-05-06 18:13 | 52.78460 | 2.59827 | 25438 ft | 433 kts | 103° |
| 2026-05-06 18:13 | 52.77834 | 2.64693 | 24937 ft | 433 kts | 103° |
| 2026-05-06 18:13 | 52.77208 | 2.69538 | 24428 ft | 430 kts | 103° |
| 2026-05-06 18:13 | 52.76584 | 2.74342 | 23921 ft | 427 kts | 103° |
| 2026-05-06 18:14 | 52.75958 | 2.79126 | 23370 ft | 424 kts | 103° |
| 2026-05-06 18:14 | 52.75338 | 2.83861 | 22818 ft | 421 kts | 103° |
| 2026-05-06 18:14 | 52.74719 | 2.88565 | 22301 ft | 418 kts | 103° |
| 2026-05-06 18:14 | 52.74112 | 2.93172 | 21806 ft | 415 kts | 103° |
| 2026-05-06 18:15 | 52.73459 | 2.97791 | 21300 ft | 411 kts | 108° |
| 2026-05-06 18:15 | 52.72363 | 3.02102 | 20774 ft | 405 kts | 121° |
| 2026-05-06 18:15 | 52.70952 | 3.06113 | 20305 ft | 403 kts | 122° |
| 2026-05-06 18:15 | 52.69544 | 3.10102 | 19805 ft | 402 kts | 122° |
| 2026-05-06 18:16 | 52.68146 | 3.14078 | 19330 ft | 400 kts | 122° |
| 2026-05-06 18:16 | 52.66759 | 3.18035 | 18837 ft | 397 kts | 121° |
| 2026-05-06 18:16 | 52.65384 | 3.21957 | 18360 ft | 394 kts | 121° |
| 2026-05-06 18:16 | 52.64016 | 3.25857 | 17844 ft | 392 kts | 121° |
| 2026-05-06 18:17 | 52.62654 | 3.29729 | 17376 ft | 390 kts | 122° |
| 2026-05-06 18:17 | 52.61292 | 3.33580 | 16914 ft | 388 kts | 122° |
| 2026-05-06 18:17 | 52.59937 | 3.37399 | 16462 ft | 385 kts | 122° |
| 2026-05-06 18:17 | 52.58725 | 3.41306 | 15998 ft | 382 kts | 111° |
| 2026-05-06 18:18 | 52.58071 | 3.45520 | 15554 ft | 381 kts | 99° |
| 2026-05-06 18:18 | 52.57626 | 3.49811 | 15105 ft | 380 kts | 99° |
| 2026-05-06 18:18 | 52.57180 | 3.54073 | 14686 ft | 378 kts | 99° |
| 2026-05-06 18:18 | 52.56732 | 3.58297 | 14300 ft | 374 kts | 100° |
| 2026-05-06 18:19 | 52.56282 | 3.62508 | 13809 ft | 374 kts | 99° |
| 2026-05-06 18:19 | 52.55831 | 3.66698 | 13415 ft | 368 kts | 100° |
| 2026-05-06 18:19 | 52.55381 | 3.70844 | 12867 ft | 369 kts | 99° |
| 2026-05-06 18:19 | 52.54935 | 3.74925 | 12408 ft | 366 kts | 99° |
| 2026-05-06 18:20 | 52.54484 | 3.79070 | 12038 ft | 358 kts | 99° |
| 2026-05-06 18:20 | 52.54063 | 3.82939 | 11916 ft | 331 kts | 100° |
| 2026-05-06 18:20 | 52.53673 | 3.86498 | 11693 ft | 312 kts | 99° |
| 2026-05-06 18:20 | 52.53294 | 3.89952 | 11191 ft | 305 kts | 99° |
| 2026-05-06 18:21 | 52.52920 | 3.93351 | 10636 ft | 300 kts | 99° |
| 2026-05-06 18:21 | 52.52514 | 3.96672 | 10114 ft | 294 kts | 106° |
| 2026-05-06 18:21 | 52.51792 | 3.99806 | 9956 ft | 294 kts | 111° |
| 2026-05-06 18:21 | 52.51028 | 4.02921 | 9958 ft | 295 kts | 111° |
| 2026-05-06 18:22 | 52.50264 | 4.06054 | 9958 ft | 296 kts | 111° |
| 2026-05-06 18:22 | 52.49739 | 4.09285 | 9956 ft | 294 kts | 95° |
| 2026-05-06 18:22 | 52.49615 | 4.12623 | 9946 ft | 292 kts | 84° |
| 2026-05-06 18:22 | 52.50064 | 4.15849 | 9961 ft | 291 kts | 69° |
| 2026-05-06 18:23 | 52.50670 | 4.19022 | 9948 ft | 292 kts | 80° |
| 2026-05-06 18:23 | 52.50581 | 4.22335 | 9904 ft | 292 kts | 105° |
| 2026-05-06 18:23 | 52.49665 | 4.25276 | 9528 ft | 291 kts | 127° |
| 2026-05-06 18:23 | 52.48525 | 4.27986 | 9125 ft | 288 kts | 112° |
| 2026-05-06 18:24 | 52.48065 | 4.31129 | 8760 ft | 282 kts | 95° |
| 2026-05-06 18:24 | 52.47827 | 4.34310 | 8387 ft | 281 kts | 104° |
| 2026-05-06 18:24 | 52.46942 | 4.37121 | 8034 ft | 280 kts | 130° |
| 2026-05-06 18:24 | 52.45368 | 4.38962 | 7659 ft | 281 kts | 158° |
| 2026-05-06 18:25 | 52.43451 | 4.39471 | 7263 ft | 282 kts | 180° |
| 2026-05-06 18:25 | 52.41498 | 4.39366 | 6920 ft | 279 kts | 182° |
| 2026-05-06 18:25 | 52.39564 | 4.39195 | 6548 ft | 278 kts | 182° |
| 2026-05-06 18:25 | 52.37631 | 4.38991 | 6116 ft | 279 kts | 182° |
| 2026-05-06 18:26 | 52.35702 | 4.38777 | 5725 ft | 277 kts | 182° |
| 2026-05-06 18:26 | 52.33783 | 4.38576 | 5277 ft | 277 kts | 178° |
| 2026-05-06 18:26 | 52.31931 | 4.39172 | 4854 ft | 270 kts | 156° |
| 2026-05-06 18:26 | 52.30200 | 4.40352 | 4414 ft | 269 kts | 153° |
| 2026-05-06 18:27 | 52.28498 | 4.41582 | 4059 ft | 265 kts | 152° |
| 2026-05-06 18:27 | 52.26847 | 4.42753 | 3926 ft | 253 kts | 153° |
| 2026-05-06 18:27 | 52.25267 | 4.43861 | 3776 ft | 240 kts | 153° |
| 2026-05-06 18:27 | 52.23753 | 4.44907 | 3358 ft | 234 kts | 152° |
| 2026-05-06 18:28 | 52.22323 | 4.46090 | 2850 ft | 226 kts | 135° |
| 2026-05-06 18:28 | 52.21470 | 4.48059 | 2379 ft | 211 kts | 102° |
| 2026-05-06 18:28 | 52.21175 | 4.50407 | 2032 ft | 208 kts | 93° |
| 2026-05-06 18:28 | 52.20989 | 4.52744 | 2028 ft | 213 kts | 93° |
| 2026-05-06 18:29 | 52.20812 | 4.55149 | 2018 ft | 212 kts | 92° |
| 2026-05-06 18:29 | 52.20940 | 4.57492 | 2021 ft | 207 kts | 66° |
| 2026-05-06 18:29 | 52.21659 | 4.59494 | 2014 ft | 206 kts | 40° |
| 2026-05-06 18:29 | 52.22901 | 4.60640 | 1919 ft | 207 kts | 28° |
| 2026-05-06 18:30 | 52.24081 | 4.61926 | 1712 ft | 202 kts | 43° |
| 2026-05-06 18:30 | 52.24956 | 4.63622 | 1458 ft | 186 kts | 53° |
| 2026-05-06 18:30 | 52.25642 | 4.65287 | 1223 ft | 168 kts | 55° |
| 2026-05-06 18:30 | 52.26239 | 4.66809 | 1020 ft | 153 kts | 55° |
| 2026-05-06 18:31 | 52.26794 | 4.68238 | 804 ft | 147 kts | 56° |
| 2026-05-06 18:31 | 52.27337 | 4.69642 | 626 ft | 142 kts | 55° |
| 2026-05-06 18:31 | 52.27841 | 4.70952 | 410 ft | 136 kts | 55° |
| 2026-05-06 18:31 | 52.28335 | 4.72229 | 231 ft | 132 kts | 54° |
| 2026-05-06 18:32 | 52.28820 | 4.73499 | 84 ft | 130 kts | 53° |
| 2026-05-06 18:32 | 52.29285 | 4.74697 | 1 ft | 111 kts | 57° |
| 2026-05-06 18:32 | 52.29608 | 4.75537 | -2 ft | 62 kts | 58° |
| 2026-05-06 18:32 | 52.29794 | 4.76020 | -4 ft | 44 kts | 57° |
| 2026-05-06 18:33 | 52.29947 | 4.76407 | -3 ft | 37 kts | 56° |
| 2026-05-06 18:33 | 52.30110 | 4.76610 | -1 ft | 22 kts | 25° |
| 2026-05-06 18:33 | 52.30220 | 4.76705 | -1 ft | 6 kts | 28° |
| 2026-05-06 18:33 | 52.30238 | 4.76721 | -1 ft | 0 kts | 27° |
| 2026-05-06 18:34 | 52.30272 | 4.76750 | -1 ft | 8 kts | 31° |
| 2026-05-06 18:34 | 52.30314 | 4.76825 | -1 ft | 10 kts | 56° |
| 2026-05-06 18:34 | 52.30362 | 4.76944 | -1 ft | 14 kts | 56° |
| 2026-05-06 18:35 | 52.30420 | 4.77103 | -1 ft | 18 kts | 58° |
| 2026-05-06 18:35 | 52.30489 | 4.77282 | -1 ft | 19 kts | 58° |
| 2026-05-06 18:35 | 52.30563 | 4.77474 | -1 ft | 21 kts | 57° |
| 2026-05-06 18:35 | 52.30656 | 4.77584 | -1 ft | 15 kts | 13° |
| 2026-05-06 18:36 | 52.30764 | 4.77599 | -1 ft | 16 kts | 3° |
| 2026-05-06 18:36 | 52.30884 | 4.77608 | -1 ft | 18 kts | 2° |
| 2026-05-06 18:36 | 52.31015 | 4.77622 | -1 ft | 19 kts | 4° |
| 2026-05-06 18:36 | 52.31153 | 4.77633 | -1 ft | 20 kts | 2° |
| 2026-05-06 18:37 | 52.31296 | 4.77645 | -1 ft | 21 kts | 3° |
| 2026-05-06 18:37 | 52.31395 | 4.77653 | -1 ft | 21 kts | 359° |
| 2026-05-06 18:37 | 52.31549 | 4.77494 | -1 ft | 20 kts | 311° |
| 2026-05-06 18:37 | 52.31575 | 4.77277 | -1 ft | 20 kts | 266° |
| 2026-05-06 18:38 | 52.31567 | 4.77053 | -1 ft | 19 kts | 266° |
| 2026-05-06 18:38 | 52.31560 | 4.76841 | -1 ft | 18 kts | 267° |
| 2026-05-06 18:38 | 52.31553 | 4.76636 | -1 ft | 17 kts | 267° |
| 2026-05-06 18:38 | 52.31545 | 4.76449 | -1 ft | 16 kts | 268° |
| 2026-05-06 18:39 | 52.31541 | 4.76281 | -1 ft | 14 kts | 267° |
| 2026-05-06 18:39 | 52.31536 | 4.76128 | -1 ft | 13 kts | 267° |
| 2026-05-06 18:39 | 52.31530 | 4.75991 | -1 ft | 11 kts | 265° |
| 2026-05-06 18:40 | 52.31521 | 4.75756 | -1 ft | 9 kts | 268° |
| 2026-05-06 18:40 | 52.31519 | 4.75646 | -1 ft | 12 kts | 268° |
| 2026-05-06 18:40 | 52.31513 | 4.75511 | -1 ft | 11 kts | 259° |
| 2026-05-06 18:40 | 52.31462 | 4.75441 | -1 ft | 9 kts | 193° |
| 2026-05-06 18:41 | 52.31402 | 4.75443 | -1 ft | 8 kts | 175° |
| 2026-05-06 18:41 | 52.31332 | 4.75451 | -1 ft | 12 kts | 176° |
| 2026-05-06 18:41 | 52.31252 | 4.75460 | -1 ft | 11 kts | 176° |
| 2026-05-06 18:41 | 52.31179 | 4.75467 | -1 ft | 10 kts | 177° |
| 2026-05-06 18:42 | 52.31119 | 4.75450 | -1 ft | 8 kts | 172° |
| 2026-05-06 18:42 | 52.31075 | 4.75489 | -1 ft | 6 kts | 148° |
| 2026-05-06 18:42 | 52.31053 | 4.75510 | -1 ft | 2 kts | 148° |
| 2026-05-06 18:42 | 52.31049 | 4.75514 | -1 ft | 0 kts | 148° |
| 2026-05-06 18:43 | 52.31045 | 4.75518 | -1 ft | 0 kts | 148° |